sensor_id;sensor_type;location;lat;lon;timestamp;pressure;altitude;pressure_sealevel;temperature;humidity
42247;BME280;27913;42.722;23.268;2023-05-22T00:04:36;94761.06;;;15.66;78.55
42247;BME280;27913;42.722;23.268;2023-05-22T00:07:01;94706.03;;;15.37;77.91
42247;BME280;27913;42.722;23.268;2023-05-22T00:09:28;94703.59;;;15.36;77.59
42247;BME280;27913;42.722;23.268;2023-05-22T00:11:53;94763.09;;;15.82;77.72
42247;BME280;27913;42.722;23.268;2023-05-22T00:14:18;94764.13;;;15.81;77.31
42247;BME280;27913;42.722;23.268;2023-05-22T00:16:44;94766.22;;;15.79;77.49
42247;BME280;27913;42.722;23.268;2023-05-22T00:19:12;94741.72;;;15.65;77.44
42247;BME280;27913;42.722;23.268;2023-05-22T00:21:44;94759.38;;;15.72;77.34
42247;BME280;27913;42.722;23.268;2023-05-22T00:24:11;94742.25;;;15.55;77.81
42247;BME280;27913;42.722;23.268;2023-05-22T00:26:36;94775.88;;;15.74;77.52
42247;BME280;27913;42.722;23.268;2023-05-22T00:29:02;94735.13;;;15.56;77.60
42247;BME280;27913;42.722;23.268;2023-05-22T00:31:30;94724.13;;;15.40;77.45
42247;BME280;27913;42.722;23.268;2023-05-22T00:33:55;94764.41;;;15.61;77.82
42247;BME280;27913;42.722;23.268;2023-05-22T00:36:21;94754.72;;;15.55;78.06
42247;BME280;27913;42.722;23.268;2023-05-22T00:38:46;94772.50;;;15.66;78.12
42247;BME280;27913;42.722;23.268;2023-05-22T00:41:12;94757.50;;;15.60;78.04
42247;BME280;27913;42.722;23.268;2023-05-22T00:43:38;94759.09;;;15.61;77.64
42247;BME280;27913;42.722;23.268;2023-05-22T00:46:03;94777.91;;;15.72;77.70
42247;BME280;27913;42.722;23.268;2023-05-22T00:48:31;94746.03;;;15.48;77.61
42247;BME280;27913;42.722;23.268;2023-05-22T00:50:58;94781.47;;;15.65;77.89
42247;BME280;27913;42.722;23.268;2023-05-22T00:53:25;94744.25;;;15.41;77.83
42247;BME280;27913;42.722;23.268;2023-05-22T00:55:53;94772.34;;;15.61;78.01
42247;BME280;27913;42.722;23.268;2023-05-22T00:58:18;94748.41;;;15.37;78.32
42247;BME280;27913;42.722;23.268;2023-05-22T01:00:44;94749.88;;;15.33;78.58
42247;BME280;27913;42.722;23.268;2023-05-22T01:03:11;94736.72;;;15.26;78.56
42247;BME280;27913;42.722;23.268;2023-05-22T01:05:38;94774.13;;;15.49;78.72
42247;BME280;27913;42.722;23.268;2023-05-22T01:08:04;94745.16;;;15.35;78.82
42247;BME280;27913;42.722;23.268;2023-05-22T01:10:32;94704.53;;;15.11;78.73
42247;BME280;27913;42.722;23.268;2023-05-22T01:18:35;94764.00;;;15.45;79.20
42247;BME280;27913;42.722;23.268;2023-05-22T01:21:17;94768.47;;;15.45;79.48
42247;BME280;27913;42.722;23.268;2023-05-22T01:23:59;94750.34;;;15.30;79.43
42247;BME280;27913;42.722;23.268;2023-05-22T01:32:33;94690.56;;;14.84;79.57
42247;BME280;27913;42.722;23.268;2023-05-22T01:35:04;94760.34;;;15.28;79.79
42247;BME280;27913;42.722;23.268;2023-05-22T01:37:32;94764.44;;;15.24;79.70
42247;BME280;27913;42.722;23.268;2023-05-22T01:39:58;94735.94;;;15.07;79.91
42247;BME280;27913;42.722;23.268;2023-05-22T01:42:23;94727.03;;;15.01;80.13
42247;BME280;27913;42.722;23.268;2023-05-22T01:44:49;94720.78;;;14.95;80.25
42247;BME280;27913;42.722;23.268;2023-05-22T01:47:15;94723.41;;;14.95;80.33
42247;BME280;27913;42.722;23.268;2023-05-22T01:49:42;94706.09;;;14.81;80.39
42247;BME280;27913;42.722;23.268;2023-05-22T01:52:32;94743.94;;;15.00;80.75
42247;BME280;27913;42.722;23.268;2023-05-22T01:55:08;94669.72;;;14.51;80.46
42247;BME280;27913;42.722;23.268;2023-05-22T01:57:45;94752.28;;;15.04;80.66
42247;BME280;27913;42.722;23.268;2023-05-22T02:00:14;94695.81;;;14.66;80.72
42247;BME280;27913;42.722;23.268;2023-05-22T02:02:43;94739.16;;;14.90;80.85
42247;BME280;27913;42.722;23.268;2023-05-22T02:05:10;94746.09;;;14.91;81.15
42247;BME280;27913;42.722;23.268;2023-05-22T02:07:38;94706.19;;;14.67;81.06
42247;BME280;27913;42.722;23.268;2023-05-22T02:10:07;94750.34;;;14.92;81.04
42247;BME280;27913;42.722;23.268;2023-05-22T02:12:35;94689.25;;;14.49;81.28
42247;BME280;27913;42.722;23.268;2023-05-22T02:15:00;94752.84;;;14.87;81.47
42247;BME280;27913;42.722;23.268;2023-05-22T02:17:26;94755.94;;;14.84;81.59
42247;BME280;27913;42.722;23.268;2023-05-22T02:19:52;94754.28;;;14.83;82.00
42247;BME280;27913;42.722;23.268;2023-05-22T02:22:17;94755.94;;;14.84;81.94
42247;BME280;27913;42.722;23.268;2023-05-22T02:24:45;94749.38;;;14.87;81.78
42247;BME280;27913;42.722;23.268;2023-05-22T02:27:11;94756.31;;;14.88;82.05
42247;BME280;27913;42.722;23.268;2023-05-22T02:29:37;94683.66;;;14.39;81.94
42247;BME280;27913;42.722;23.268;2023-05-22T02:32:02;94757.13;;;14.88;81.69
42247;BME280;27913;42.722;23.268;2023-05-22T02:34:28;94757.91;;;14.89;81.80
42247;BME280;27913;42.722;23.268;2023-05-22T02:36:57;94755.03;;;14.90;81.88
42247;BME280;27913;42.722;23.268;2023-05-22T02:39:24;94709.28;;;14.64;81.65
42247;BME280;27913;42.722;23.268;2023-05-22T02:41:50;94731.19;;;14.71;81.87
42247;BME280;27913;42.722;23.268;2023-05-22T02:44:15;94742.97;;;14.76;82.21
42247;BME280;27913;42.722;23.268;2023-05-22T02:46:41;94753.88;;;14.86;81.93
42247;BME280;27913;42.722;23.268;2023-05-22T02:49:06;94752.03;;;14.87;82.20
42247;BME280;27913;42.722;23.268;2023-05-22T02:51:31;94751.66;;;14.83;82.27
42247;BME280;27913;42.722;23.268;2023-05-22T02:53:57;94753.28;;;14.84;82.59
42247;BME280;27913;42.722;23.268;2023-05-22T02:56:22;94752.72;;;14.75;82.79
42247;BME280;27913;42.722;23.268;2023-05-22T02:58:49;94742.38;;;14.73;82.68
42247;BME280;27913;42.722;23.268;2023-05-22T03:01:14;94746.25;;;14.71;82.66
42247;BME280;27913;42.722;23.268;2023-05-22T03:03:40;94712.13;;;14.44;82.79
42247;BME280;27913;42.722;23.268;2023-05-22T03:06:05;94729.75;;;14.50;83.05
42247;BME280;27913;42.722;23.268;2023-05-22T03:08:33;94682.91;;;14.13;83.22
42247;BME280;27913;42.722;23.268;2023-05-22T03:11:02;94746.44;;;14.51;83.40
42247;BME280;27913;42.722;23.268;2023-05-22T03:13:27;94717.34;;;14.32;83.33
42247;BME280;27913;42.722;23.268;2023-05-22T03:15:53;94730.56;;;14.32;83.53
42247;BME280;27913;42.722;23.268;2023-05-22T03:18:18;94731.34;;;14.32;83.74
42247;BME280;27913;42.722;23.268;2023-05-22T03:20:44;94757.88;;;14.44;83.76
42247;BME280;27913;42.722;23.268;2023-05-22T03:23:10;94706.25;;;14.16;83.78
42247;BME280;27913;42.722;23.268;2023-05-22T03:25:37;94739.03;;;14.41;83.82
42247;BME280;27913;42.722;23.268;2023-05-22T03:28:02;94706.59;;;14.27;83.82
42247;BME280;27913;42.722;23.268;2023-05-22T03:30:28;94749.03;;;14.57;83.62
42247;BME280;27913;42.722;23.268;2023-05-22T03:32:53;94741.91;;;14.58;83.31
42247;BME280;27913;42.722;23.268;2023-05-22T03:35:19;94727.41;;;14.42;83.10
42247;BME280;27913;42.722;23.268;2023-05-22T03:37:45;94735.94;;;14.44;82.90
42247;BME280;27913;42.722;23.268;2023-05-22T03:40:11;94712.03;;;14.32;82.95
42247;BME280;27913;42.722;23.268;2023-05-22T03:42:37;94731.25;;;14.46;82.88
42247;BME280;27913;42.722;23.268;2023-05-22T03:45:02;94738.28;;;14.52;82.64
42247;BME280;27913;42.722;23.268;2023-05-22T03:47:28;94753.44;;;14.64;82.56
42247;BME280;27913;42.722;23.268;2023-05-22T03:49:53;94747.13;;;14.65;82.34
42247;BME280;27913;42.722;23.268;2023-05-22T03:52:19;94752.50;;;14.77;81.98
42247;BME280;27913;42.722;23.268;2023-05-22T03:54:44;94758.41;;;14.79;81.60
42247;BME280;27913;42.722;23.268;2023-05-22T03:57:10;94763.28;;;14.82;81.81
42247;BME280;27913;42.722;23.268;2023-05-22T03:59:35;94706.91;;;14.56;81.33
42247;BME280;27913;42.722;23.268;2023-05-22T04:02:01;94748.13;;;14.89;81.14
42247;BME280;27913;42.722;23.268;2023-05-22T04:04:29;94706.78;;;14.69;80.23
42247;BME280;27913;42.722;23.268;2023-05-22T04:06:56;94759.75;;;15.07;80.31
42247;BME280;27913;42.722;23.268;2023-05-22T04:09:28;94766.03;;;15.13;80.08
42247;BME280;27913;42.722;23.268;2023-05-22T04:11:56;94741.91;;;15.02;79.38
42247;BME280;27913;42.722;23.268;2023-05-22T04:14:21;94766.22;;;15.11;79.56
42247;BME280;27913;42.722;23.268;2023-05-22T04:16:47;94740.28;;;14.82;80.12
42247;BME280;27913;42.722;23.268;2023-05-22T04:19:12;94713.31;;;14.67;80.86
42247;BME280;27913;42.722;23.268;2023-05-22T04:21:38;94742.69;;;14.84;80.62
42247;BME280;27913;42.722;23.268;2023-05-22T04:24:04;94763.94;;;14.96;80.74
42247;BME280;27913;42.722;23.268;2023-05-22T04:26:34;94729.50;;;14.77;80.50
42247;BME280;27913;42.722;23.268;2023-05-22T04:29:00;94758.28;;;14.92;81.23
42247;BME280;27913;42.722;23.268;2023-05-22T04:31:26;94757.47;;;14.92;81.29
42247;BME280;27913;42.722;23.268;2023-05-22T04:33:52;94733.38;;;14.74;81.01
42247;BME280;27913;42.722;23.268;2023-05-22T04:36:18;94729.50;;;14.77;80.57
42247;BME280;27913;42.722;23.268;2023-05-22T04:38:47;94744.13;;;14.80;80.54
42247;BME280;27913;42.722;23.268;2023-05-22T04:41:12;94753.25;;;14.65;81.14
42247;BME280;27913;42.722;23.268;2023-05-22T04:43:38;94773.00;;;14.88;81.38
42247;BME280;27913;42.722;23.268;2023-05-22T04:46:04;94749.13;;;14.69;81.30
42247;BME280;27913;42.722;23.268;2023-05-22T04:48:30;94770.34;;;14.88;80.98
42247;BME280;27913;42.722;23.268;2023-05-22T04:50:56;94771.75;;;14.91;81.36
42247;BME280;27913;42.722;23.268;2023-05-22T04:53:22;94753.81;;;14.93;80.54
42247;BME280;27913;42.722;23.268;2023-05-22T04:55:48;94735.03;;;14.94;79.59
42247;BME280;27913;42.722;23.268;2023-05-22T04:58:14;94778.56;;;15.36;79.63
42247;BME280;27913;42.722;23.268;2023-05-22T05:00:39;94778.97;;;15.52;78.64
42247;BME280;27913;42.722;23.268;2023-05-22T05:03:05;94729.88;;;15.37;77.41
42247;BME280;27913;42.722;23.268;2023-05-22T05:05:32;94758.31;;;15.73;76.59
42247;BME280;27913;42.722;23.268;2023-05-22T05:07:58;94773.34;;;15.79;75.91
42247;BME280;27913;42.722;23.268;2023-05-22T05:10:24;94764.16;;;15.63;75.88
42247;BME280;27913;42.722;23.268;2023-05-22T05:12:49;94779.75;;;15.71;75.65
42247;BME280;27913;42.722;23.268;2023-05-22T05:15:15;94783.81;;;15.74;75.90
42247;BME280;27913;42.722;23.268;2023-05-22T05:17:41;94766.13;;;15.67;76.44
42247;BME280;27913;42.722;23.268;2023-05-22T05:20:07;94769.38;;;15.69;76.01
42247;BME280;27913;42.722;23.268;2023-05-22T05:22:32;94696.34;;;15.12;75.30
42247;BME280;27913;42.722;23.268;2023-05-22T05:24:58;94754.78;;;15.48;75.51
42247;BME280;27913;42.722;23.268;2023-05-22T05:27:32;94790.63;;;15.81;75.76
42247;BME280;27913;42.722;23.268;2023-05-22T05:29:58;94745.41;;;15.33;76.05
42247;BME280;27913;42.722;23.268;2023-05-22T05:32:23;94751.47;;;15.34;76.19
42247;BME280;27913;42.722;23.268;2023-05-22T05:34:49;94772.91;;;15.51;76.58
42247;BME280;27913;42.722;23.268;2023-05-22T05:37:14;94779.25;;;15.62;76.77
42247;BME280;27913;42.722;23.268;2023-05-22T05:39:40;94793.28;;;15.81;76.28
42247;BME280;27913;42.722;23.268;2023-05-22T05:42:05;94800.34;;;15.88;76.29
42247;BME280;27913;42.722;23.268;2023-05-22T05:44:31;94769.88;;;15.78;76.56
42247;BME280;27913;42.722;23.268;2023-05-22T05:46:56;94765.66;;;15.89;76.16
42247;BME280;27913;42.722;23.268;2023-05-22T05:49:22;94771.44;;;15.98;74.29
42247;BME280;27913;42.722;23.268;2023-05-22T05:51:47;94740.84;;;15.84;73.90
42247;BME280;27913;42.722;23.268;2023-05-22T05:54:13;94748.13;;;15.88;73.88
42247;BME280;27913;42.722;23.268;2023-05-22T05:56:38;94773.66;;;16.01;73.38
42247;BME280;27913;42.722;23.268;2023-05-22T05:59:04;94792.84;;;16.15;74.15
42247;BME280;27913;42.722;23.268;2023-05-22T06:01:29;94797.56;;;16.13;73.59
42247;BME280;27913;42.722;23.268;2023-05-22T06:03:57;94775.53;;;16.13;73.69
42247;BME280;27913;42.722;23.268;2023-05-22T06:06:27;94766.53;;;16.14;73.06
42247;BME280;27913;42.722;23.268;2023-05-22T06:08:54;94757.88;;;16.18;72.97
42247;BME280;27913;42.722;23.268;2023-05-22T06:11:19;94762.06;;;16.14;72.78
42247;BME280;27913;42.722;23.268;2023-05-22T06:13:46;94767.25;;;16.21;72.71
42247;BME280;27913;42.722;23.268;2023-05-22T06:16:12;94785.84;;;16.33;72.21
42247;BME280;27913;42.722;23.268;2023-05-22T06:18:37;94783.66;;;16.30;71.88
42247;BME280;27913;42.722;23.268;2023-05-22T06:21:03;94765.44;;;16.34;70.57
42247;BME280;27913;42.722;23.268;2023-05-22T06:23:28;94804.78;;;16.61;69.72
42247;BME280;27913;42.722;23.268;2023-05-22T06:25:55;94747.41;;;16.24;68.35
42247;BME280;27913;42.722;23.268;2023-05-22T06:28:20;94800.53;;;16.60;68.20
42247;BME280;27913;42.722;23.268;2023-05-22T06:30:46;94780.66;;;16.50;68.16
42247;BME280;27913;42.722;23.268;2023-05-22T06:33:11;94772.03;;;16.55;68.26
42247;BME280;27913;42.722;23.268;2023-05-22T06:35:38;94781.25;;;16.64;69.06
42247;BME280;27913;42.722;23.268;2023-05-22T06:38:03;94744.44;;;16.56;70.56
42247;BME280;27913;42.722;23.268;2023-05-22T06:40:29;94792.66;;;16.89;69.64
42247;BME280;27913;42.722;23.268;2023-05-22T06:42:56;94768.19;;;16.75;67.00
42247;BME280;27913;42.722;23.268;2023-05-22T06:45:22;94789.06;;;17.07;66.60
42247;BME280;27913;42.722;23.268;2023-05-22T06:47:51;94779.28;;;17.20;65.89
42247;BME280;27913;42.722;23.268;2023-05-22T06:50:17;94788.69;;;17.39;66.62
42247;BME280;27913;42.722;23.268;2023-05-22T06:52:43;94785.00;;;17.41;66.00
42247;BME280;27913;42.722;23.268;2023-05-22T06:55:08;94793.97;;;17.52;63.30
42247;BME280;27913;42.722;23.268;2023-05-22T06:57:34;94794.09;;;17.57;61.68
42247;BME280;27913;42.722;23.268;2023-05-22T07:00:00;94768.09;;;17.47;61.79
42247;BME280;27913;42.722;23.268;2023-05-22T07:02:25;94795.31;;;17.66;61.93
42247;BME280;27913;42.722;23.268;2023-05-22T07:04:51;94788.31;;;17.48;60.64
42247;BME280;27913;42.722;23.268;2023-05-22T07:07:17;94793.25;;;17.56;61.42
42247;BME280;27913;42.722;23.268;2023-05-22T07:09:43;94798.25;;;17.82;61.05
42247;BME280;27913;42.722;23.268;2023-05-22T07:12:09;94800.53;;;17.90;60.12
42247;BME280;27913;42.722;23.268;2023-05-22T07:14:34;94779.00;;;17.74;60.15
42247;BME280;27913;42.722;23.268;2023-05-22T07:17:00;94769.09;;;17.87;60.36
42247;BME280;27913;42.722;23.268;2023-05-22T07:19:27;94747.88;;;17.75;59.13
42247;BME280;27913;42.722;23.268;2023-05-22T07:21:52;94741.47;;;17.88;58.57
42247;BME280;27913;42.722;23.268;2023-05-22T07:24:18;94770.19;;;18.20;57.60
42247;BME280;27913;42.722;23.268;2023-05-22T07:26:43;94772.88;;;18.20;55.98
42247;BME280;27913;42.722;23.268;2023-05-22T07:29:11;94730.19;;;17.98;55.60
42247;BME280;27913;42.722;23.268;2023-05-22T07:31:46;94791.78;;;18.36;56.15
42247;BME280;27913;42.722;23.268;2023-05-22T07:34:12;94789.81;;;18.49;55.35
42247;BME280;27913;42.722;23.268;2023-05-22T07:36:37;94764.59;;;18.34;54.50
42247;BME280;27913;42.722;23.268;2023-05-22T07:39:03;94743.28;;;18.34;55.35
42247;BME280;27913;42.722;23.268;2023-05-22T07:41:29;94780.75;;;18.84;55.27
42247;BME280;27913;42.722;23.268;2023-05-22T07:43:54;94741.25;;;18.58;55.06
42247;BME280;27913;42.722;23.268;2023-05-22T07:46:20;94776.97;;;18.80;55.07
42247;BME280;27913;42.722;23.268;2023-05-22T07:48:45;94758.63;;;18.83;55.34
42247;BME280;27913;42.722;23.268;2023-05-22T07:51:11;94771.41;;;19.21;54.16
42247;BME280;27913;42.722;23.268;2023-05-22T07:53:40;94721.44;;;18.89;54.03
42247;BME280;27913;42.722;23.268;2023-05-22T07:56:05;94772.47;;;19.20;54.23
42247;BME280;27913;42.722;23.268;2023-05-22T07:58:31;94748.47;;;19.20;54.13
42247;BME280;27913;42.722;23.268;2023-05-22T08:00:58;94736.09;;;18.91;54.91
42247;BME280;27913;42.722;23.268;2023-05-22T08:03:25;94706.19;;;18.44;57.97
42247;BME280;27913;42.722;23.268;2023-05-22T08:05:51;94747.03;;;18.73;57.29
42247;BME280;27913;42.722;23.268;2023-05-22T08:08:16;94774.13;;;18.87;58.07
42247;BME280;27913;42.722;23.268;2023-05-22T08:10:42;94765.16;;;18.93;58.27
42247;BME280;27913;42.722;23.268;2023-05-22T08:13:07;94756.41;;;18.98;57.55
42247;BME280;27913;42.722;23.268;2023-05-22T08:15:33;94742.06;;;18.99;56.85
42247;BME280;27913;42.722;23.268;2023-05-22T08:17:59;94679.19;;;18.58;57.04
42247;BME280;27913;42.722;23.268;2023-05-22T08:20:25;94731.78;;;18.85;58.53
42247;BME280;27913;42.722;23.268;2023-05-22T08:22:50;94753.34;;;19.06;56.93
42247;BME280;27913;42.722;23.268;2023-05-22T08:25:16;94773.94;;;19.33;57.26
42247;BME280;27913;42.722;23.268;2023-05-22T08:27:42;94760.63;;;19.33;53.84
42247;BME280;27913;42.722;23.268;2023-05-22T08:30:07;94731.03;;;19.35;52.73
42247;BME280;27913;42.722;23.268;2023-05-22T08:32:33;94681.16;;;19.07;51.58
42247;BME280;27913;42.722;23.268;2023-05-22T08:35:00;94774.81;;;19.61;50.68
42247;BME280;27913;42.722;23.268;2023-05-22T08:37:25;94733.81;;;19.45;50.72
42247;BME280;27913;42.722;23.268;2023-05-22T08:39:51;94703.97;;;19.43;50.52
42247;BME280;27913;42.722;23.268;2023-05-22T08:42:16;94749.00;;;19.95;50.80
42247;BME280;27913;42.722;23.268;2023-05-22T08:44:42;94735.56;;;20.12;51.01
42247;BME280;27913;42.722;23.268;2023-05-22T08:47:08;94731.25;;;20.44;46.00
42247;BME280;27913;42.722;23.268;2023-05-22T08:49:38;94717.13;;;20.43;43.07
42247;BME280;27913;42.722;23.268;2023-05-22T08:52:16;94742.44;;;20.79;43.86
42247;BME280;27913;42.722;23.268;2023-05-22T08:54:45;94758.16;;;21.13;44.62
42247;BME280;27913;42.722;23.268;2023-05-22T08:57:14;94726.59;;;21.05;43.46
42247;BME280;27913;42.722;23.268;2023-05-22T08:59:40;94726.66;;;21.26;41.58
42247;BME280;27913;42.722;23.268;2023-05-22T09:02:06;94753.28;;;21.74;40.76
42247;BME280;27913;42.722;23.268;2023-05-22T09:04:34;94737.28;;;21.84;38.97
42247;BME280;27913;42.722;23.268;2023-05-22T09:06:59;94733.00;;;21.89;37.81
42247;BME280;27913;42.722;23.268;2023-05-22T09:09:31;94736.72;;;21.88;37.65
42247;BME280;27913;42.722;23.268;2023-05-22T09:11:57;94737.84;;;22.07;38.01
42247;BME280;27913;42.722;23.268;2023-05-22T09:14:22;94721.22;;;21.95;38.33
42247;BME280;27913;42.722;23.268;2023-05-22T09:16:50;94756.56;;;22.13;39.89
42247;BME280;27913;42.722;23.268;2023-05-22T09:19:17;94735.97;;;21.98;40.37
42247;BME280;27913;42.722;23.268;2023-05-22T09:21:42;94723.88;;;21.84;39.61
42247;BME280;27913;42.722;23.268;2023-05-22T09:24:12;94704.03;;;21.65;39.28
42247;BME280;27913;42.722;23.268;2023-05-22T09:26:38;94746.88;;;21.75;39.97
42247;BME280;27913;42.722;23.268;2023-05-22T09:29:05;94757.19;;;21.45;40.91
42247;BME280;27913;42.722;23.268;2023-05-22T09:31:30;94755.50;;;21.18;41.92
42247;BME280;27913;42.722;23.268;2023-05-22T09:33:58;94740.44;;;21.02;41.95
42247;BME280;27913;42.722;23.268;2023-05-22T09:36:31;94766.50;;;21.22;42.83
42247;BME280;27913;42.722;23.268;2023-05-22T09:38:59;94686.59;;;20.77;43.56
42247;BME280;27913;42.722;23.268;2023-05-22T09:41:24;94738.66;;;21.23;43.29
42247;BME280;27913;42.722;23.268;2023-05-22T09:43:52;94739.28;;;21.46;42.49
42247;BME280;27913;42.722;23.268;2023-05-22T09:46:17;94736.41;;;21.73;41.92
42247;BME280;27913;42.722;23.268;2023-05-22T09:48:42;94699.81;;;21.79;41.13
42247;BME280;27913;42.722;23.268;2023-05-22T09:51:09;94743.19;;;22.18;41.03
42247;BME280;27913;42.722;23.268;2023-05-22T09:53:35;94734.63;;;22.16;41.46
42247;BME280;27913;42.722;23.268;2023-05-22T09:56:05;94712.13;;;22.32;41.29
42247;BME280;27913;42.722;23.268;2023-05-22T09:58:34;94731.13;;;22.47;41.47
42247;BME280;27913;42.722;23.268;2023-05-22T10:01:02;94723.66;;;22.38;41.34
42247;BME280;27913;42.722;23.268;2023-05-22T10:03:30;94714.00;;;22.22;40.63
42247;BME280;27913;42.722;23.268;2023-05-22T10:05:57;94735.16;;;22.44;40.50
42247;BME280;27913;42.722;23.268;2023-05-22T10:08:35;94751.75;;;22.56;40.44
42247;BME280;27913;42.722;23.268;2023-05-22T10:11:01;94722.03;;;22.32;40.86
42247;BME280;27913;42.722;23.268;2023-05-22T10:13:27;94745.88;;;22.65;40.87
42247;BME280;27913;42.722;23.268;2023-05-22T10:15:54;94758.19;;;22.61;40.02
42247;BME280;27913;42.722;23.268;2023-05-22T10:18:22;94707.84;;;22.16;40.82
42247;BME280;27913;42.722;23.268;2023-05-22T10:20:48;94711.88;;;22.13;41.33
42247;BME280;27913;42.722;23.268;2023-05-22T10:23:14;94754.44;;;22.51;40.77
42247;BME280;27913;42.722;23.268;2023-05-22T10:25:42;94734.09;;;22.29;40.49
42247;BME280;27913;42.722;23.268;2023-05-22T10:28:09;94744.81;;;22.24;40.92
42247;BME280;27913;42.722;23.268;2023-05-22T10:31:13;94751.50;;;22.32;41.71
42247;BME280;27913;42.722;23.268;2023-05-22T10:33:57;94722.03;;;21.85;43.80
42247;BME280;27913;42.722;23.268;2023-05-22T10:36:31;94752.69;;;21.51;45.94
42247;BME280;27913;42.722;23.268;2023-05-22T10:42:04;94716.69;;;20.62;49.28
42247;BME280;27913;42.722;23.268;2023-05-22T10:44:32;94728.50;;;20.66;50.51
42247;BME280;27913;42.722;23.268;2023-05-22T10:46:57;94749.81;;;20.61;52.03
42247;BME280;27913;42.722;23.268;2023-05-22T10:49:34;94754.13;;;20.67;54.22
42247;BME280;27913;42.722;23.268;2023-05-22T10:52:02;94734.19;;;20.80;53.65
42247;BME280;27913;42.722;23.268;2023-05-22T10:54:44;94739.13;;;21.04;50.21
42247;BME280;27913;42.722;23.268;2023-05-22T10:59:36;94724.03;;;21.36;49.67
42247;BME280;27913;42.722;23.268;2023-05-22T11:02:04;94695.69;;;21.45;48.62
42247;BME280;27913;42.722;23.268;2023-05-22T11:04:30;94728.44;;;21.84;47.74
42247;BME280;27913;42.722;23.268;2023-05-22T11:07:04;94754.97;;;22.12;45.01
42247;BME280;27913;42.722;23.268;2023-05-22T11:09:40;94689.09;;;21.79;44.70
42247;BME280;27913;42.722;23.268;2023-05-22T11:14:53;94723.41;;;22.19;47.38
42247;BME280;27913;42.722;23.268;2023-05-22T11:17:21;94699.31;;;22.03;47.95
42247;BME280;27913;42.722;23.268;2023-05-22T11:20:21;94738.91;;;22.32;48.45
42247;BME280;27913;42.722;23.268;2023-05-22T11:22:49;94734.88;;;22.19;47.63
42247;BME280;27913;42.722;23.268;2023-05-22T11:25:16;94699.22;;;21.67;48.35
42247;BME280;27913;42.722;23.268;2023-05-22T11:27:42;94718.19;;;21.60;48.04
42247;BME280;27913;42.722;23.268;2023-05-22T11:30:09;94718.69;;;21.36;49.26
42247;BME280;27913;42.722;23.268;2023-05-22T11:32:39;94732.09;;;21.57;47.09
42247;BME280;27913;42.722;23.268;2023-05-22T11:35:05;94734.72;;;21.36;46.93
42247;BME280;27913;42.722;23.268;2023-05-22T11:37:36;94729.88;;;21.22;47.01
42247;BME280;27913;42.722;23.268;2023-05-22T11:40:04;94729.41;;;20.93;48.36
42247;BME280;27913;42.722;23.268;2023-05-22T11:42:30;94779.53;;;20.70;50.77
42247;BME280;27913;42.722;23.268;2023-05-22T11:44:56;94801.19;;;20.08;53.57
42247;BME280;27913;42.722;23.268;2023-05-22T11:47:22;94801.78;;;19.65;56.09
42247;BME280;27913;42.722;23.268;2023-05-22T11:49:49;94805.28;;;19.43;57.15
42247;BME280;27913;42.722;23.268;2023-05-22T11:52:17;94806.88;;;19.44;56.92
42247;BME280;27913;42.722;23.268;2023-05-22T11:54:46;94806.56;;;19.18;58.22
42247;BME280;27913;42.722;23.268;2023-05-22T11:57:12;94792.50;;;19.05;60.70
42247;BME280;27913;42.722;23.268;2023-05-22T11:59:38;94768.31;;;18.90;61.36
42247;BME280;27913;42.722;23.268;2023-05-22T12:02:05;94789.88;;;18.88;63.69
42247;BME280;27913;42.722;23.268;2023-05-22T12:04:36;94810.78;;;18.79;64.87
42247;BME280;27913;42.722;23.268;2023-05-22T12:07:02;94794.69;;;18.52;65.54
42247;BME280;27913;42.722;23.268;2023-05-22T12:09:27;94778.13;;;18.32;68.43
42247;BME280;27913;42.722;23.268;2023-05-22T12:11:56;94801.03;;;18.33;66.13
42247;BME280;27913;42.722;23.268;2023-05-22T12:14:29;94799.75;;;18.36;64.97
42247;BME280;27913;42.722;23.268;2023-05-22T12:16:57;94776.44;;;18.26;62.82
42247;BME280;27913;42.722;23.268;2023-05-22T12:19:24;94793.84;;;18.51;63.16
42247;BME280;27913;42.722;23.268;2023-05-22T12:21:51;94774.97;;;18.53;62.23
42247;BME280;27913;42.722;23.268;2023-05-22T12:24:16;94792.72;;;18.81;62.19
42247;BME280;27913;42.722;23.268;2023-05-22T12:26:54;94766.94;;;18.87;61.99
42247;BME280;27913;42.722;23.268;2023-05-22T12:29:23;94792.28;;;19.29;60.64
42247;BME280;27913;42.722;23.268;2023-05-22T12:31:50;94790.06;;;19.43;59.94
42247;BME280;27913;42.722;23.268;2023-05-22T12:34:16;94785.53;;;19.44;59.36
42247;BME280;27913;42.722;23.268;2023-05-22T12:36:43;94782.13;;;19.49;60.14
42247;BME280;27913;42.722;23.268;2023-05-22T12:39:15;94787.28;;;19.55;60.55
42247;BME280;27913;42.722;23.268;2023-05-22T12:41:41;94781.25;;;19.65;60.91
42247;BME280;27913;42.722;23.268;2023-05-22T12:44:07;94767.06;;;19.60;61.48
42247;BME280;27913;42.722;23.268;2023-05-22T12:46:33;94783.16;;;19.70;61.62
42247;BME280;27913;42.722;23.268;2023-05-22T12:49:00;94748.22;;;19.44;61.01
42247;BME280;27913;42.722;23.268;2023-05-22T12:51:27;94754.44;;;19.50;58.54
42247;BME280;27913;42.722;23.268;2023-05-22T12:53:57;94744.44;;;19.40;57.21
42247;BME280;27913;42.722;23.268;2023-05-22T12:56:22;94743.75;;;19.50;57.90
42247;BME280;27913;42.722;23.268;2023-05-22T12:58:48;94780.34;;;19.82;58.05
42247;BME280;27913;42.722;23.268;2023-05-22T13:01:14;94777.72;;;19.87;57.44
42247;BME280;27913;42.722;23.268;2023-05-22T13:03:40;94780.50;;;19.98;56.78
42247;BME280;27913;42.722;23.268;2023-05-22T13:06:05;94737.88;;;19.75;56.94
42247;BME280;27913;42.722;23.268;2023-05-22T13:08:31;94757.84;;;20.00;57.48
42247;BME280;27913;42.722;23.268;2023-05-22T13:10:56;94770.84;;;20.19;56.76
42247;BME280;27913;42.722;23.268;2023-05-22T13:13:22;94762.41;;;20.27;54.71